sensor_id;sensor_type;location;lat;lon;timestamp;temperature;humidity
17415;DHT22;8825;48.086;16.426;2023-09-07T00:00:18;17.80;63.60
17415;DHT22;8825;48.086;16.426;2023-09-07T00:02:46;17.80;63.50
17415;DHT22;8825;48.086;16.426;2023-09-07T00:05:13;17.70;63.10
17415;DHT22;8825;48.086;16.426;2023-09-07T00:07:41;17.70;62.90
17415;DHT22;8825;48.086;16.426;2023-09-07T00:10:09;17.60;62.60
17415;DHT22;8825;48.086;16.426;2023-09-07T00:12:36;17.50;62.40
17415;DHT22;8825;48.086;16.426;2023-09-07T00:15:06;17.50;62.40
17415;DHT22;8825;48.086;16.426;2023-09-07T00:17:35;17.40;62.50
17415;DHT22;8825;48.086;16.426;2023-09-07T00:20:03;17.40;63.00
17415;DHT22;8825;48.086;16.426;2023-09-07T00:22:37;17.30;63.30
17415;DHT22;8825;48.086;16.426;2023-09-07T00:25:06;17.30;63.50
17415;DHT22;8825;48.086;16.426;2023-09-07T00:27:34;17.30;63.70
17415;DHT22;8825;48.086;16.426;2023-09-07T00:30:02;17.20;63.70
17415;DHT22;8825;48.086;16.426;2023-09-07T00:32:36;17.20;63.60
17415;DHT22;8825;48.086;16.426;2023-09-07T00:35:05;17.10;63.30
17415;DHT22;8825;48.086;16.426;2023-09-07T00:37:33;17.10;63.20
17415;DHT22;8825;48.086;16.426;2023-09-07T00:40:01;17.00;63.20
17415;DHT22;8825;48.086;16.426;2023-09-07T00:42:30;17.00;63.90
17415;DHT22;8825;48.086;16.426;2023-09-07T00:44:57;17.00;64.20
17415;DHT22;8825;48.086;16.426;2023-09-07T00:47:25;17.00;64.60
17415;DHT22;8825;48.086;16.426;2023-09-07T00:49:52;16.90;64.80
17415;DHT22;8825;48.086;16.426;2023-09-07T00:52:21;16.90;65.60
17415;DHT22;8825;48.086;16.426;2023-09-07T00:54:49;16.80;65.80
17415;DHT22;8825;48.086;16.426;2023-09-07T00:57:17;16.80;66.00
17415;DHT22;8825;48.086;16.426;2023-09-07T00:59:44;16.70;66.30
17415;DHT22;8825;48.086;16.426;2023-09-07T01:02:12;16.70;66.40
17415;DHT22;8825;48.086;16.426;2023-09-07T01:04:40;16.70;66.80
17415;DHT22;8825;48.086;16.426;2023-09-07T01:09:56;16.70;67.30
17415;DHT22;8825;48.086;16.426;2023-09-07T01:12:19;16.70;67.50
17415;DHT22;8825;48.086;16.426;2023-09-07T01:14:47;16.70;67.60
17415;DHT22;8825;48.086;16.426;2023-09-07T01:17:14;16.70;67.20
17415;DHT22;8825;48.086;16.426;2023-09-07T01:19:44;16.60;66.70
17415;DHT22;8825;48.086;16.426;2023-09-07T01:22:13;16.60;66.30
17415;DHT22;8825;48.086;16.426;2023-09-07T01:24:42;16.60;66.30
17415;DHT22;8825;48.086;16.426;2023-09-07T01:27:10;16.50;66.20
17415;DHT22;8825;48.086;16.426;2023-09-07T01:29:39;16.50;66.30
17415;DHT22;8825;48.086;16.426;2023-09-07T01:32:07;16.50;66.70
17415;DHT22;8825;48.086;16.426;2023-09-07T01:34:37;16.40;66.80
17415;DHT22;8825;48.086;16.426;2023-09-07T01:37:04;16.40;67.20
17415;DHT22;8825;48.086;16.426;2023-09-07T01:39:32;16.40;67.50
17415;DHT22;8825;48.086;16.426;2023-09-07T01:41:59;16.40;67.70
17415;DHT22;8825;48.086;16.426;2023-09-07T01:44:27;16.40;68.50
17415;DHT22;8825;48.086;16.426;2023-09-07T01:46:56;16.40;67.70
17415;DHT22;8825;48.086;16.426;2023-09-07T01:49:23;16.30;67.80
17415;DHT22;8825;48.086;16.426;2023-09-07T01:51:54;16.30;67.90
17415;DHT22;8825;48.086;16.426;2023-09-07T01:54:21;16.30;68.80
17415;DHT22;8825;48.086;16.426;2023-09-07T01:56:49;16.30;68.20
17415;DHT22;8825;48.086;16.426;2023-09-07T01:59:16;16.30;68.30
17415;DHT22;8825;48.086;16.426;2023-09-07T02:01:44;16.30;68.20
17415;DHT22;8825;48.086;16.426;2023-09-07T02:04:11;16.30;68.20
17415;DHT22;8825;48.086;16.426;2023-09-07T02:06:39;16.30;68.30
17415;DHT22;8825;48.086;16.426;2023-09-07T02:09:06;16.30;68.30
17415;DHT22;8825;48.086;16.426;2023-09-07T02:11:34;16.30;68.40
17415;DHT22;8825;48.086;16.426;2023-09-07T02:14:02;16.30;68.50
17415;DHT22;8825;48.086;16.426;2023-09-07T02:16:29;16.30;68.60
17415;DHT22;8825;48.086;16.426;2023-09-07T02:19:04;16.30;68.50
17415;DHT22;8825;48.086;16.426;2023-09-07T02:21:31;16.30;68.40
17415;DHT22;8825;48.086;16.426;2023-09-07T02:23:59;16.20;68.10
17415;DHT22;8825;48.086;16.426;2023-09-07T02:26:27;16.20;67.90
17415;DHT22;8825;48.086;16.426;2023-09-07T02:28:54;16.20;68.10
17415;DHT22;8825;48.086;16.426;2023-09-07T02:31:22;16.20;68.40
17415;DHT22;8825;48.086;16.426;2023-09-07T02:33:50;16.20;68.50
17415;DHT22;8825;48.086;16.426;2023-09-07T02:36:17;16.20;68.60
17415;DHT22;8825;48.086;16.426;2023-09-07T02:38:45;16.20;68.70
17415;DHT22;8825;48.086;16.426;2023-09-07T02:41:13;16.20;69.20
17415;DHT22;8825;48.086;16.426;2023-09-07T02:43:40;16.30;69.30
17415;DHT22;8825;48.086;16.426;2023-09-07T02:46:07;16.30;69.20
17415;DHT22;8825;48.086;16.426;2023-09-07T02:48:35;16.30;69.10
17415;DHT22;8825;48.086;16.426;2023-09-07T02:51:03;16.30;69.00
17415;DHT22;8825;48.086;16.426;2023-09-07T02:53:30;16.30;68.90
17415;DHT22;8825;48.086;16.426;2023-09-07T02:55:58;16.30;68.80
17415;DHT22;8825;48.086;16.426;2023-09-07T02:58:27;16.30;68.80
17415;DHT22;8825;48.086;16.426;2023-09-07T03:00:55;16.30;68.60
17415;DHT22;8825;48.086;16.426;2023-09-07T03:03:22;16.20;67.80
17415;DHT22;8825;48.086;16.426;2023-09-07T03:05:50;16.10;66.90
17415;DHT22;8825;48.086;16.426;2023-09-07T03:08:17;16.10;66.60
17415;DHT22;8825;48.086;16.426;2023-09-07T03:10:45;16.00;66.50
17415;DHT22;8825;48.086;16.426;2023-09-07T03:13:12;15.90;66.60
17415;DHT22;8825;48.086;16.426;2023-09-07T03:15:40;15.90;66.70
17415;DHT22;8825;48.086;16.426;2023-09-07T03:18:07;15.80;66.80
17415;DHT22;8825;48.086;16.426;2023-09-07T03:20:35;15.80;67.00
17415;DHT22;8825;48.086;16.426;2023-09-07T03:23:02;15.70;67.10
17415;DHT22;8825;48.086;16.426;2023-09-07T03:25:30;15.70;67.30
17415;DHT22;8825;48.086;16.426;2023-09-07T03:27:57;15.60;67.50
17415;DHT22;8825;48.086;16.426;2023-09-07T03:30:25;15.60;67.60
17415;DHT22;8825;48.086;16.426;2023-09-07T03:32:53;15.60;67.80
17415;DHT22;8825;48.086;16.426;2023-09-07T03:35:20;15.60;68.00
17415;DHT22;8825;48.086;16.426;2023-09-07T03:37:48;15.50;68.20
17415;DHT22;8825;48.086;16.426;2023-09-07T03:40:15;15.50;68.30
17415;DHT22;8825;48.086;16.426;2023-09-07T03:42:43;15.40;68.20
17415;DHT22;8825;48.086;16.426;2023-09-07T03:45:12;15.40;68.40
17415;DHT22;8825;48.086;16.426;2023-09-07T03:47:39;15.30;68.70
17415;DHT22;8825;48.086;16.426;2023-09-07T03:50:07;15.30;69.00
17415;DHT22;8825;48.086;16.426;2023-09-07T03:52:35;15.20;69.20
17415;DHT22;8825;48.086;16.426;2023-09-07T03:55:03;15.20;69.40
17415;DHT22;8825;48.086;16.426;2023-09-07T03:57:30;15.20;69.40
17415;DHT22;8825;48.086;16.426;2023-09-07T03:59:59;15.20;69.60
17415;DHT22;8825;48.086;16.426;2023-09-07T04:02:26;15.10;69.60
17415;DHT22;8825;48.086;16.426;2023-09-07T04:04:55;15.10;70.50
17415;DHT22;8825;48.086;16.426;2023-09-07T04:07:22;15.10;70.10
17415;DHT22;8825;48.086;16.426;2023-09-07T04:09:51;15.10;70.20
17415;DHT22;8825;48.086;16.426;2023-09-07T04:12:18;15.00;70.20
17415;DHT22;8825;48.086;16.426;2023-09-07T04:14:46;15.00;70.30
17415;DHT22;8825;48.086;16.426;2023-09-07T04:17:13;15.00;70.30
17415;DHT22;8825;48.086;16.426;2023-09-07T04:19:41;15.00;70.50
17415;DHT22;8825;48.086;16.426;2023-09-07T04:22:11;15.00;70.50
17415;DHT22;8825;48.086;16.426;2023-09-07T04:24:38;15.00;70.60
17415;DHT22;8825;48.086;16.426;2023-09-07T04:27:06;15.00;70.50
17415;DHT22;8825;48.086;16.426;2023-09-07T04:29:34;14.90;70.60
17415;DHT22;8825;48.086;16.426;2023-09-07T04:32:01;15.00;70.90
17415;DHT22;8825;48.086;16.426;2023-09-07T04:34:29;15.00;70.90
17415;DHT22;8825;48.086;16.426;2023-09-07T04:36:56;15.00;71.00
17415;DHT22;8825;48.086;16.426;2023-09-07T04:39:24;15.00;70.90
17415;DHT22;8825;48.086;16.426;2023-09-07T04:41:51;15.00;70.60
17415;DHT22;8825;48.086;16.426;2023-09-07T04:44:19;15.00;70.30
17415;DHT22;8825;48.086;16.426;2023-09-07T04:46:47;15.00;70.20
17415;DHT22;8825;48.086;16.426;2023-09-07T04:49:14;15.00;70.30
17415;DHT22;8825;48.086;16.426;2023-09-07T04:51:42;15.10;70.30
17415;DHT22;8825;48.086;16.426;2023-09-07T04:54:09;15.10;70.50
17415;DHT22;8825;48.086;16.426;2023-09-07T04:56:37;15.10;70.70
17415;DHT22;8825;48.086;16.426;2023-09-07T04:59:04;15.10;70.90
17415;DHT22;8825;48.086;16.426;2023-09-07T05:01:32;15.10;71.90
17415;DHT22;8825;48.086;16.426;2023-09-07T05:03:59;15.20;71.40
17415;DHT22;8825;48.086;16.426;2023-09-07T05:06:29;15.20;71.50
17415;DHT22;8825;48.086;16.426;2023-09-07T05:08:56;15.10;71.50
17415;DHT22;8825;48.086;16.426;2023-09-07T05:11:24;15.00;71.60
17415;DHT22;8825;48.086;16.426;2023-09-07T05:13:51;15.00;71.80
17415;DHT22;8825;48.086;16.426;2023-09-07T05:16:19;15.10;71.90
17415;DHT22;8825;48.086;16.426;2023-09-07T05:18:46;15.10;71.90
17415;DHT22;8825;48.086;16.426;2023-09-07T05:21:15;15.10;71.90
17415;DHT22;8825;48.086;16.426;2023-09-07T05:23:43;15.20;71.90
17415;DHT22;8825;48.086;16.426;2023-09-07T05:26:10;15.20;71.80
17415;DHT22;8825;48.086;16.426;2023-09-07T05:28:40;15.20;71.50
17415;DHT22;8825;48.086;16.426;2023-09-07T05:31:08;15.20;71.20
17415;DHT22;8825;48.086;16.426;2023-09-07T05:33:35;15.30;70.90
17415;DHT22;8825;48.086;16.426;2023-09-07T05:36:03;15.30;70.90
17415;DHT22;8825;48.086;16.426;2023-09-07T05:38:31;15.30;70.90
17415;DHT22;8825;48.086;16.426;2023-09-07T05:40:58;15.30;70.90
17415;DHT22;8825;48.086;16.426;2023-09-07T05:43:26;15.40;71.00
17415;DHT22;8825;48.086;16.426;2023-09-07T05:45:53;15.40;71.10
17415;DHT22;8825;48.086;16.426;2023-09-07T05:48:21;15.50;71.50
17415;DHT22;8825;48.086;16.426;2023-09-07T05:50:49;15.60;71.70
17415;DHT22;8825;48.086;16.426;2023-09-07T05:53:18;15.60;72.60
17415;DHT22;8825;48.086;16.426;2023-09-07T05:55:46;15.70;71.90
17415;DHT22;8825;48.086;16.426;2023-09-07T05:58:14;15.80;72.00
17415;DHT22;8825;48.086;16.426;2023-09-07T06:00:41;15.90;72.10
17415;DHT22;8825;48.086;16.426;2023-09-07T06:03:10;16.00;72.30
17415;DHT22;8825;48.086;16.426;2023-09-07T06:05:37;16.10;72.40
17415;DHT22;8825;48.086;16.426;2023-09-07T06:08:06;16.20;72.50
17415;DHT22;8825;48.086;16.426;2023-09-07T06:10:34;16.30;72.50
17415;DHT22;8825;48.086;16.426;2023-09-07T06:13:01;16.40;72.50
17415;DHT22;8825;48.086;16.426;2023-09-07T06:15:29;16.50;72.80
17415;DHT22;8825;48.086;16.426;2023-09-07T06:17:57;16.60;72.60
17415;DHT22;8825;48.086;16.426;2023-09-07T06:20:24;16.70;72.80
17415;DHT22;8825;48.086;16.426;2023-09-07T06:22:52;16.80;73.10
17415;DHT22;8825;48.086;16.426;2023-09-07T06:25:20;16.90;73.00
17415;DHT22;8825;48.086;16.426;2023-09-07T06:27:48;17.00;72.80
17415;DHT22;8825;48.086;16.426;2023-09-07T06:30:16;17.10;72.70
17415;DHT22;8825;48.086;16.426;2023-09-07T06:32:43;17.20;72.50
17415;DHT22;8825;48.086;16.426;2023-09-07T06:35:11;17.30;72.50
17415;DHT22;8825;48.086;16.426;2023-09-07T06:37:38;17.40;73.30
17415;DHT22;8825;48.086;16.426;2023-09-07T06:40:08;17.50;72.50
17415;DHT22;8825;48.086;16.426;2023-09-07T06:42:37;17.60;72.30
17415;DHT22;8825;48.086;16.426;2023-09-07T06:45:05;17.80;72.40
17415;DHT22;8825;48.086;16.426;2023-09-07T06:47:33;17.90;72.40
17415;DHT22;8825;48.086;16.426;2023-09-07T06:50:02;18.00;72.10
17415;DHT22;8825;48.086;16.426;2023-09-07T06:52:29;18.20;72.90
17415;DHT22;8825;48.086;16.426;2023-09-07T06:54:57;18.30;71.60
17415;DHT22;8825;48.086;16.426;2023-09-07T06:57:24;18.30;71.30
17415;DHT22;8825;48.086;16.426;2023-09-07T06:59:52;18.50;71.10
17415;DHT22;8825;48.086;16.426;2023-09-07T07:02:20;18.60;70.90
17415;DHT22;8825;48.086;16.426;2023-09-07T07:04:47;18.70;70.50
17415;DHT22;8825;48.086;16.426;2023-09-07T07:07:15;18.90;70.30
17415;DHT22;8825;48.086;16.426;2023-09-07T07:09:42;19.10;70.20
17415;DHT22;8825;48.086;16.426;2023-09-07T07:12:10;19.20;69.80
17415;DHT22;8825;48.086;16.426;2023-09-07T07:14:38;19.50;69.50
17415;DHT22;8825;48.086;16.426;2023-09-07T07:17:06;19.60;68.70
17415;DHT22;8825;48.086;16.426;2023-09-07T07:19:33;19.60;67.00
17415;DHT22;8825;48.086;16.426;2023-09-07T07:22:01;19.70;66.30
17415;DHT22;8825;48.086;16.426;2023-09-07T07:24:29;19.80;65.60
17415;DHT22;8825;48.086;16.426;2023-09-07T07:26:56;19.90;65.30
17415;DHT22;8825;48.086;16.426;2023-09-07T07:29:24;20.00;64.80
17415;DHT22;8825;48.086;16.426;2023-09-07T07:31:51;20.00;63.80
17415;DHT22;8825;48.086;16.426;2023-09-07T07:34:19;20.20;64.00
17415;DHT22;8825;48.086;16.426;2023-09-07T07:36:47;20.30;63.30
17415;DHT22;8825;48.086;16.426;2023-09-07T07:39:14;20.40;63.30
17415;DHT22;8825;48.086;16.426;2023-09-07T07:41:42;20.60;62.90
17415;DHT22;8825;48.086;16.426;2023-09-07T07:44:11;20.70;61.80
17415;DHT22;8825;48.086;16.426;2023-09-07T07:46:39;20.80;61.40
17415;DHT22;8825;48.086;16.426;2023-09-07T07:49:06;20.90;61.20
17415;DHT22;8825;48.086;16.426;2023-09-07T07:51:34;21.00;60.70
17415;DHT22;8825;48.086;16.426;2023-09-07T07:54:01;21.10;60.90
17415;DHT22;8825;48.086;16.426;2023-09-07T07:56:29;21.30;61.00
17415;DHT22;8825;48.086;16.426;2023-09-07T07:58:57;21.40;61.00
17415;DHT22;8825;48.086;16.426;2023-09-07T08:01:24;21.50;60.90
17415;DHT22;8825;48.086;16.426;2023-09-07T08:03:52;21.70;59.70
17415;DHT22;8825;48.086;16.426;2023-09-07T08:06:20;21.70;58.80
17415;DHT22;8825;48.086;16.426;2023-09-07T08:08:48;21.80;59.10
17415;DHT22;8825;48.086;16.426;2023-09-07T08:11:15;21.90;59.00
17415;DHT22;8825;48.086;16.426;2023-09-07T08:13:43;22.00;58.60
17415;DHT22;8825;48.086;16.426;2023-09-07T08:16:13;22.00;57.60
17415;DHT22;8825;48.086;16.426;2023-09-07T08:18:40;22.10;58.10
17415;DHT22;8825;48.086;16.426;2023-09-07T08:21:08;22.20;58.10
17415;DHT22;8825;48.086;16.426;2023-09-07T08:23:35;22.40;57.60
17415;DHT22;8825;48.086;16.426;2023-09-07T08:26:03;22.50;56.60
17415;DHT22;8825;48.086;16.426;2023-09-07T08:28:31;22.60;56.60
17415;DHT22;8825;48.086;16.426;2023-09-07T08:30:59;22.70;56.50
17415;DHT22;8825;48.086;16.426;2023-09-07T08:33:27;22.80;56.00
17415;DHT22;8825;48.086;16.426;2023-09-07T08:35:57;22.90;56.30
17415;DHT22;8825;48.086;16.426;2023-09-07T08:38:26;23.00;55.80
17415;DHT22;8825;48.086;16.426;2023-09-07T08:40:54;23.20;55.90
17415;DHT22;8825;48.086;16.426;2023-09-07T08:43:22;23.20;55.50
17415;DHT22;8825;48.086;16.426;2023-09-07T08:45:55;23.40;55.70
17415;DHT22;8825;48.086;16.426;2023-09-07T08:48:23;23.60;54.90
17415;DHT22;8825;48.086;16.426;2023-09-07T08:50:51;23.70;55.00
17415;DHT22;8825;48.086;16.426;2023-09-07T08:53:19;23.80;53.40
17415;DHT22;8825;48.086;16.426;2023-09-07T08:55:48;24.00;52.80
17415;DHT22;8825;48.086;16.426;2023-09-07T08:58:16;24.20;52.20
17415;DHT22;8825;48.086;16.426;2023-09-07T09:00:43;24.50;52.30
17415;DHT22;8825;48.086;16.426;2023-09-07T09:03:11;24.80;52.10
17415;DHT22;8825;48.086;16.426;2023-09-07T09:05:40;25.20;51.60
17415;DHT22;8825;48.086;16.426;2023-09-07T09:08:08;25.70;51.20
17415;DHT22;8825;48.086;16.426;2023-09-07T09:10:42;26.10;50.10
17415;DHT22;8825;48.086;16.426;2023-09-07T09:13:07;26.50;49.00
17415;DHT22;8825;48.086;16.426;2023-09-07T09:15:34;27.00;47.30
17415;DHT22;8825;48.086;16.426;2023-09-07T09:18:09;27.30;45.40
17415;DHT22;8825;48.086;16.426;2023-09-07T09:20:38;27.70;44.80
17415;DHT22;8825;48.086;16.426;2023-09-07T09:23:06;28.10;44.30
17415;DHT22;8825;48.086;16.426;2023-09-07T09:25:34;28.40;43.10
17415;DHT22;8825;48.086;16.426;2023-09-07T09:28:02;28.80;42.70
17415;DHT22;8825;48.086;16.426;2023-09-07T09:30:29;29.30;42.60
17415;DHT22;8825;48.086;16.426;2023-09-07T09:32:57;29.70;41.40
17415;DHT22;8825;48.086;16.426;2023-09-07T09:35:26;29.90;39.00
17415;DHT22;8825;48.086;16.426;2023-09-07T09:37:54;30.20;39.30
17415;DHT22;8825;48.086;16.426;2023-09-07T09:40:21;30.60;38.80
17415;DHT22;8825;48.086;16.426;2023-09-07T09:42:50;31.00;37.60
17415;DHT22;8825;48.086;16.426;2023-09-07T09:45:19;31.40;37.20
17415;DHT22;8825;48.086;16.426;2023-09-07T09:47:49;31.50;34.90
17415;DHT22;8825;48.086;16.426;2023-09-07T09:50:19;31.60;34.70
17415;DHT22;8825;48.086;16.426;2023-09-07T09:52:47;31.80;33.30
17415;DHT22;8825;48.086;16.426;2023-09-07T09:55:15;31.70;32.80
17415;DHT22;8825;48.086;16.426;2023-09-07T09:57:43;31.60;31.10
17415;DHT22;8825;48.086;16.426;2023-09-07T10:00:13;31.60;31.60
17415;DHT22;8825;48.086;16.426;2023-09-07T10:02:43;31.80;32.10
17415;DHT22;8825;48.086;16.426;2023-09-07T10:05:11;32.00;32.00
17415;DHT22;8825;48.086;16.426;2023-09-07T10:07:45;32.30;31.00
17415;DHT22;8825;48.086;16.426;2023-09-07T10:10:14;32.60;30.60
17415;DHT22;8825;48.086;16.426;2023-09-07T10:12:44;32.60;29.50
17415;DHT22;8825;48.086;16.426;2023-09-07T10:15:25;32.70;29.40
17415;DHT22;8825;48.086;16.426;2023-09-07T10:18:08;32.90;28.80
17415;DHT22;8825;48.086;16.426;2023-09-07T10:23:34;32.80;29.10
17415;DHT22;8825;48.086;16.426;2023-09-07T10:25:53;33.00;29.10
17415;DHT22;8825;48.086;16.426;2023-09-07T10:28:26;33.10;28.50
17415;DHT22;8825;48.086;16.426;2023-09-07T10:31:12;33.20;28.80
17415;DHT22;8825;48.086;16.426;2023-09-07T10:33:36;33.10;27.50
17415;DHT22;8825;48.086;16.426;2023-09-07T10:36:04;33.20;28.60
17415;DHT22;8825;48.086;16.426;2023-09-07T10:38:33;33.40;28.20
17415;DHT22;8825;48.086;16.426;2023-09-07T10:41:02;33.20;27.00
17415;DHT22;8825;48.086;16.426;2023-09-07T10:43:32;33.00;27.90
17415;DHT22;8825;48.086;16.426;2023-09-07T10:46:00;32.70;27.20
17415;DHT22;8825;48.086;16.426;2023-09-07T10:48:31;32.60;27.80
17415;DHT22;8825;48.086;16.426;2023-09-07T10:51:01;32.50;28.00
17415;DHT22;8825;48.086;16.426;2023-09-07T10:53:31;32.00;27.80
17415;DHT22;8825;48.086;16.426;2023-09-07T10:56:02;31.70;28.40
17415;DHT22;8825;48.086;16.426;2023-09-07T10:58:33;31.40;28.50
17415;DHT22;8825;48.086;16.426;2023-09-07T11:01:01;31.40;29.40
17415;DHT22;8825;48.086;16.426;2023-09-07T11:03:30;31.40;29.50
17415;DHT22;8825;48.086;16.426;2023-09-07T11:08:31;31.60;29.80
17415;DHT22;8825;48.086;16.426;2023-09-07T11:11:03;31.80;29.80
17415;DHT22;8825;48.086;16.426;2023-09-07T11:13:31;31.90;29.70
17415;DHT22;8825;48.086;16.426;2023-09-07T11:16:00;31.90;29.70
17415;DHT22;8825;48.086;16.426;2023-09-07T11:18:28;31.90;29.50
17415;DHT22;8825;48.086;16.426;2023-09-07T11:20:56;31.70;29.00
17415;DHT22;8825;48.086;16.426;2023-09-07T11:23:26;31.60;29.60
17415;DHT22;8825;48.086;16.426;2023-09-07T11:25:55;31.60;29.90
17415;DHT22;8825;48.086;16.426;2023-09-07T11:28:22;31.50;29.60
17415;DHT22;8825;48.086;16.426;2023-09-07T11:30:52;31.20;29.70
17415;DHT22;8825;48.086;16.426;2023-09-07T11:33:22;31.10;30.20
17415;DHT22;8825;48.086;16.426;2023-09-07T11:35:51;31.00;30.80
17415;DHT22;8825;48.086;16.426;2023-09-07T11:38:19;31.10;31.00
17415;DHT22;8825;48.086;16.426;2023-09-07T11:40:46;31.20;31.10
17415;DHT22;8825;48.086;16.426;2023-09-07T11:43:15;30.90;30.30
17415;DHT22;8825;48.086;16.426;2023-09-07T11:45:44;30.80;31.20
17415;DHT22;8825;48.086;16.426;2023-09-07T11:48:12;30.80;32.00
17415;DHT22;8825;48.086;16.426;2023-09-07T11:50:40;30.90;32.20
17415;DHT22;8825;48.086;16.426;2023-09-07T11:53:08;31.00;32.10
17415;DHT22;8825;48.086;16.426;2023-09-07T11:55:35;31.00;31.50
17415;DHT22;8825;48.086;16.426;2023-09-07T11:58:04;30.90;31.00
17415;DHT22;8825;48.086;16.426;2023-09-07T12:00:31;30.90;32.30
17415;DHT22;8825;48.086;16.426;2023-09-07T12:02:59;30.80;31.80
17415;DHT22;8825;48.086;16.426;2023-09-07T12:05:27;30.80;31.80
17415;DHT22;8825;48.086;16.426;2023-09-07T12:07:54;30.90;31.90
17415;DHT22;8825;48.086;16.426;2023-09-07T12:10:22;30.90;31.40
17415;DHT22;8825;48.086;16.426;2023-09-07T12:12:50;30.80;31.80
17415;DHT22;8825;48.086;16.426;2023-09-07T12:15:17;30.90;32.10
17415;DHT22;8825;48.086;16.426;2023-09-07T12:17:45;31.00;32.50
17415;DHT22;8825;48.086;16.426;2023-09-07T12:20:14;31.00;32.10
17415;DHT22;8825;48.086;16.426;2023-09-07T12:22:41;31.10;32.70
17415;DHT22;8825;48.086;16.426;2023-09-07T12:25:09;31.10;32.00
17415;DHT22;8825;48.086;16.426;2023-09-07T12:27:39;31.10;31.90
17415;DHT22;8825;48.086;16.426;2023-09-07T12:30:09;31.00;32.00
17415;DHT22;8825;48.086;16.426;2023-09-07T12:32:39;31.00;32.40
17415;DHT22;8825;48.086;16.426;2023-09-07T12:35:07;31.10;32.80
17415;DHT22;8825;48.086;16.426;2023-09-07T12:37:38;31.10;31.80
17415;DHT22;8825;48.086;16.426;2023-09-07T12:40:06;30.90;32.00
17415;DHT22;8825;48.086;16.426;2023-09-07T12:42:40;30.70;31.80
17415;DHT22;8825;48.086;16.426;2023-09-07T12:45:09;30.70;32.20
17415;DHT22;8825;48.086;16.426;2023-09-07T12:47:37;30.70;32.60
17415;DHT22;8825;48.086;16.426;2023-09-07T12:50:05;30.80;33.00
17415;DHT22;8825;48.086;16.426;2023-09-07T12:52:34;30.90;32.90
17415;DHT22;8825;48.086;16.426;2023-09-07T12:55:04;31.00;33.00
17415;DHT22;8825;48.086;16.426;2023-09-07T12:57:33;31.10;32.90
17415;DHT22;8825;48.086;16.426;2023-09-07T13:00:07;31.20;32.90
17415;DHT22;8825;48.086;16.426;2023-09-07T13:02:35;31.20;32.40
17415;DHT22;8825;48.086;16.426;2023-09-07T13:05:03;31.20;32.20
17415;DHT22;8825;48.086;16.426;2023-09-07T13:07:33;31.20;32.40
17415;DHT22;8825;48.086;16.426;2023-09-07T13:10:02;31.20;32.10
17415;DHT22;8825;48.086;16.426;2023-09-07T13:12:32;31.20;32.40
17415;DHT22;8825;48.086;16.426;2023-09-07T13:14:59;31.20;32.70
17415;DHT22;8825;48.086;16.426;2023-09-07T13:17:27;31.10;31.90
17415;DHT22;8825;48.086;16.426;2023-09-07T13:19:54;30.90;32.00
17415;DHT22;8825;48.086;16.426;2023-09-07T13:22:22;30.80;32.20
17415;DHT22;8825;48.086;16.426;2023-09-07T13:24:49;30.90;32.80
17415;DHT22;8825;48.086;16.426;2023-09-07T13:27:17;30.90;32.70
17415;DHT22;8825;48.086;16.426;2023-09-07T13:29:45;30.90;32.70
17415;DHT22;8825;48.086;16.426;2023-09-07T13:32:12;31.00;32.70
17415;DHT22;8825;48.086;16.426;2023-09-07T13:34:40;31.00;32.10
17415;DHT22;8825;48.086;16.426;2023-09-07T13:37:07;31.00;32.20
17415;DHT22;8825;48.086;16.426;2023-09-07T13:39:35;31.00;32.30
17415;DHT22;8825;48.086;16.426;2023-09-07T13:42:02;31.00;32.40
17415;DHT22;8825;48.086;16.426;2023-09-07T13:44:30;31.00;32.30
17415;DHT22;8825;48.086;16.426;2023-09-07T13:46:57;31.00;32.30
17415;DHT22;8825;48.086;16.426;2023-09-07T13:49:26;31.00;32.20
17415;DHT22;8825;48.086;16.426;2023-09-07T13:51:53;31.00;32.20
17415;DHT22;8825;48.086;16.426;2023-09-07T13:54:21;31.00;32.30
17415;DHT22;8825;48.086;16.426;2023-09-07T13:56:48;31.00;32.30
17415;DHT22;8825;48.086;16.426;2023-09-07T13:59:16;31.10;32.40
17415;DHT22;8825;48.086;16.426;2023-09-07T14:01:44;31.00;31.50
17415;DHT22;8825;48.086;16.426;2023-09-07T14:04:11;30.90;31.70
17415;DHT22;8825;48.086;16.426;2023-09-07T14:06:39;30.90;32.30
17415;DHT22;8825;48.086;16.426;2023-09-07T14:09:06;30.90;32.20
17415;DHT22;8825;48.086;16.426;2023-09-07T14:11:34;30.90;32.50
17415;DHT22;8825;48.086;16.426;2023-09-07T14:14:01;30.80;32.10
17415;DHT22;8825;48.086;16.426;2023-09-07T14:16:29;30.80;32.40
17415;DHT22;8825;48.086;16.426;2023-09-07T14:18:56;30.80;32.80
17415;DHT22;8825;48.086;16.426;2023-09-07T14:21:24;30.80;32.80
17415;DHT22;8825;48.086;16.426;2023-09-07T14:23:51;30.80;32.70
17415;DHT22;8825;48.086;16.426;2023-09-07T14:26:19;30.80;32.80
17415;DHT22;8825;48.086;16.426;2023-09-07T14:28:46;30.80;33.00
17415;DHT22;8825;48.086;16.426;2023-09-07T14:31:14;30.80;33.20
17415;DHT22;8825;48.086;16.426;2023-09-07T14:33:42;30.80;33.10
17415;DHT22;8825;48.086;16.426;2023-09-07T14:36:09;30.70;33.00
17415;DHT22;8825;48.086;16.426;2023-09-07T14:38:37;30.70;33.30
17415;DHT22;8825;48.086;16.426;2023-09-07T14:41:09;30.70;33.40
17415;DHT22;8825;48.086;16.426;2023-09-07T14:43:38;30.70;33.50
17415;DHT22;8825;48.086;16.426;2023-09-07T14:46:06;30.60;33.50
17415;DHT22;8825;48.086;16.426;2023-09-07T14:48:33;30.50;33.10
17415;DHT22;8825;48.086;16.426;2023-09-07T14:51:01;30.40;33.20
17415;DHT22;8825;48.086;16.426;2023-09-07T14:53:28;30.40;33.50
17415;DHT22;8825;48.086;16.426;2023-09-07T14:55:57;30.40;33.70
17415;DHT22;8825;48.086;16.426;2023-09-07T14:58:24;30.30;34.00
17415;DHT22;8825;48.086;16.426;2023-09-07T15:00:52;30.20;33.60
17415;DHT22;8825;48.086;16.426;2023-09-07T15:03:19;30.10;34.10
17415;DHT22;8825;48.086;16.426;2023-09-07T15:05:47;30.00;34.30
17415;DHT22;8825;48.086;16.426;2023-09-07T15:08:14;29.90;34.20
17415;DHT22;8825;48.086;16.426;2023-09-07T15:10:42;29.80;34.10
17415;DHT22;8825;48.086;16.426;2023-09-07T15:13:10;29.70;34.40
17415;DHT22;8825;48.086;16.426;2023-09-07T15:15:38;29.50;34.60
17415;DHT22;8825;48.086;16.426;2023-09-07T15:18:07;29.40;35.00
17415;DHT22;8825;48.086;16.426;2023-09-07T15:20:35;29.40;35.30
17415;DHT22;8825;48.086;16.426;2023-09-07T15:23:03;29.40;35.60
17415;DHT22;8825;48.086;16.426;2023-09-07T15:25:30;29.30;35.60
17415;DHT22;8825;48.086;16.426;2023-09-07T15:27:58;29.30;35.70
17415;DHT22;8825;48.086;16.426;2023-09-07T15:30:26;29.30;35.80
17415;DHT22;8825;48.086;16.426;2023-09-07T15:32:54;29.20;36.00
17415;DHT22;8825;48.086;16.426;2023-09-07T15:35:21;29.20;36.10
17415;DHT22;8825;48.086;16.426;2023-09-07T15:37:49;29.10;36.10
17415;DHT22;8825;48.086;16.426;2023-09-07T15:40:16;29.10;36.30
17415;DHT22;8825;48.086;16.426;2023-09-07T15:42:44;29.00;36.30